createdAt,value
2023-04-10T00:01:47.486Z,12.10
2023-04-10T00:04:45.844Z,11.57
2023-04-10T00:07:43.902Z,9.48
2023-04-10T00:10:42.127Z,12.05
2023-04-10T00:13:40.063Z,11.48
2023-04-10T00:16:38.119Z,10.25
2023-04-10T00:19:36.114Z,10.85
2023-04-10T00:22:34.054Z,10.02
2023-04-10T00:25:32.126Z,12.57
2023-04-10T00:28:30.005Z,8.98
2023-04-10T00:31:27.904Z,14.18
2023-04-10T00:34:26.434Z,10.32
2023-04-10T00:37:24.311Z,9.75
2023-04-10T00:40:22.694Z,13.00
2023-04-10T00:43:20.801Z,14.77
2023-04-10T00:46:18.803Z,8.55
2023-04-10T00:49:18.891Z,8.38
2023-04-10T00:52:17.219Z,9.55
2023-04-10T00:55:16.581Z,6.70
2023-04-10T00:58:15.167Z,9.05
2023-04-10T01:01:13.776Z,9.48
2023-04-10T01:04:12.322Z,11.98
2023-04-10T01:07:33.293Z,10.35
2023-04-10T01:10:44.076Z,8.93
2023-04-10T01:14:00.533Z,9.60
2023-04-10T01:17:04.375Z,12.18
2023-04-10T01:20:05.261Z,8.07
2023-04-10T01:23:17.375Z,9.93
2023-04-10T01:26:20.275Z,9.85
2023-04-10T01:29:22.450Z,10.10
2023-04-10T01:32:23.598Z,13.23
2023-04-10T01:35:22.446Z,11.02
2023-04-10T01:38:22.064Z,13.05
2023-04-10T01:41:20.657Z,7.40
2023-04-10T01:44:20.313Z,7.50
2023-04-10T01:47:19.145Z,9.18
2023-04-10T01:50:18.329Z,8.85
2023-04-10T01:53:17.512Z,8.77
2023-04-10T01:56:16.792Z,9.80
2023-04-10T01:59:14.645Z,11.38
2023-04-10T02:02:12.932Z,9.27
2023-04-10T02:05:14.412Z,8.80
2023-04-10T02:08:33.773Z,8.77
2023-04-10T02:11:39.412Z,9.07
2023-04-10T02:14:46.393Z,12.90
2023-04-10T02:17:44.799Z,11.55
2023-04-10T02:20:42.702Z,9.95
2023-04-10T02:23:40.984Z,12.10
2023-04-10T02:26:52.924Z,11.27
2023-04-10T02:29:52.164Z,13.05
2023-04-10T02:32:50.057Z,8.57
2023-04-10T02:35:48.225Z,11.60
2023-04-10T02:38:46.246Z,8.73
2023-04-10T02:41:44.106Z,12.05
2023-04-10T02:44:42.022Z,12.82
2023-04-10T02:47:40.191Z,13.13
2023-04-10T02:50:38.167Z,19.23
2023-04-10T02:53:36.259Z,13.65
2023-04-10T02:56:36.953Z,14.93
2023-04-10T02:59:34.859Z,11.68
2023-04-10T03:02:33.174Z,13.82
2023-04-10T03:05:31.805Z,14.10
2023-04-10T03:08:30.964Z,15.38
2023-04-10T03:11:28.825Z,11.32
2023-04-10T03:14:27.542Z,9.30
2023-04-10T03:17:25.542Z,8.70
2023-04-10T03:20:23.426Z,9.73
2023-04-10T03:23:21.429Z,11.80
2023-04-10T03:26:19.398Z,11.40
2023-04-10T03:29:19.705Z,12.60
2023-04-10T03:32:17.543Z,11.63
2023-04-10T03:35:15.431Z,16.17
2023-04-10T03:38:13.129Z,12.15
2023-04-10T03:41:11.049Z,12.40
2023-04-10T03:44:08.878Z,14.57
2023-04-10T03:47:06.819Z,9.90
2023-04-10T03:50:04.977Z,11.05
2023-04-10T03:53:03.063Z,10.93
2023-04-10T03:56:00.905Z,14.30
2023-04-10T03:58:58.880Z,9.85
2023-04-10T04:01:56.781Z,11.18
2023-04-10T04:04:54.811Z,11.27
2023-04-10T04:07:52.597Z,12.27
2023-04-10T04:10:50.785Z,12.90
2023-04-10T04:13:48.688Z,13.70
2023-04-10T04:16:46.941Z,15.75
2023-04-10T04:19:45.042Z,15.77
2023-04-10T04:22:43.165Z,19.60
2023-04-10T04:25:40.861Z,20.08
2023-04-10T04:28:39.051Z,24.88
2023-04-10T04:31:36.899Z,41.97
2023-04-10T04:34:34.885Z,43.58
2023-04-10T04:37:32.578Z,52.13
2023-04-10T04:40:30.460Z,50.08
2023-04-10T04:43:28.384Z,51.13
2023-04-10T04:46:26.395Z,48.65
2023-04-10T04:49:24.252Z,57.55
2023-04-10T04:52:22.057Z,57.55
2023-04-10T04:55:19.938Z,67.35
2023-04-10T04:58:17.819Z,69.53
2023-04-10T05:01:15.939Z,67.45
2023-04-10T05:04:13.949Z,62.15
2023-04-10T05:07:12.134Z,66.93
2023-04-10T05:10:10.451Z,72.70
2023-04-10T05:13:08.505Z,79.60
2023-04-10T05:16:06.827Z,75.47
2023-04-10T05:19:04.946Z,68.22
2023-04-10T05:22:03.040Z,69.03
2023-04-10T05:25:01.103Z,77.82
2023-04-10T05:27:58.956Z,62.10
2023-04-10T05:30:56.894Z,64.30
2023-04-10T05:33:54.649Z,67.60
2023-04-10T05:36:53.310Z,64.47
2023-04-10T05:39:51.049Z,60.65
2023-04-10T05:42:48.870Z,66.32
2023-04-10T05:45:46.556Z,71.47
2023-04-10T05:48:44.639Z,71.07
2023-04-10T05:51:42.366Z,72.25
2023-04-10T05:54:40.459Z,60.20
2023-04-10T05:57:39.929Z,67.10
2023-04-10T06:00:37.904Z,68.93
2023-04-10T06:03:36.124Z,69.65
2023-04-10T06:06:34.479Z,60.10
2023-04-10T06:09:32.299Z,71.63
2023-04-10T06:12:30.194Z,59.60
2023-04-10T06:15:28.260Z,77.28
2023-04-10T06:18:26.225Z,71.53
2023-04-10T06:21:24.067Z,63.42
2023-04-10T06:24:21.804Z,63.40
2023-04-10T06:27:19.697Z,68.93
2023-04-10T06:30:17.407Z,56.78
2023-04-10T06:33:15.356Z,69.28
2023-04-10T06:36:13.288Z,58.45
2023-04-10T06:39:11.045Z,60.17
2023-04-10T06:42:08.999Z,59.92
2023-04-10T06:45:07.372Z,69.50
2023-04-10T06:48:06.303Z,70.63
2023-04-10T06:51:04.507Z,64.40
2023-04-10T06:54:02.641Z,68.10
2023-04-10T06:57:01.315Z,57.03
2023-04-10T06:59:59.289Z,75.03
2023-04-10T07:02:57.274Z,63.55
2023-04-10T07:05:55.226Z,71.22
2023-04-10T07:08:53.334Z,76.20
2023-04-10T07:11:52.734Z,76.25
2023-04-10T07:14:50.719Z,73.78
2023-04-10T07:17:49.417Z,69.57
2023-04-10T07:20:47.693Z,59.72
2023-04-10T07:23:45.626Z,71.05
2023-04-10T07:26:43.924Z,63.38
2023-04-10T07:29:41.990Z,62.30
2023-04-10T07:32:40.949Z,64.82
2023-04-10T07:35:39.180Z,79.32
2023-04-10T07:38:38.370Z,78.72
2023-04-10T07:41:36.433Z,70.20
2023-04-10T07:44:34.353Z,70.53
2023-04-10T07:47:32.264Z,66.90
2023-04-10T07:50:31.331Z,66.50
2023-04-10T07:53:29.439Z,67.60
2023-04-10T07:56:27.264Z,63.00
2023-04-10T07:59:25.207Z,54.15
2023-04-10T08:02:26.205Z,55.22
2023-04-10T08:05:25.099Z,61.95
2023-04-10T08:08:23.110Z,59.55
2023-04-10T08:11:29.097Z,50.40
2023-04-10T08:14:27.205Z,54.17
2023-04-10T08:17:25.161Z,61.03
2023-04-10T08:20:22.999Z,65.22
2023-04-10T08:23:21.855Z,54.53
2023-04-10T08:26:20.323Z,60.65
2023-04-10T08:29:18.602Z,58.95
2023-04-10T08:32:16.723Z,49.88
2023-04-10T08:35:14.678Z,70.38
2023-04-10T08:38:14.519Z,53.80
2023-04-10T08:41:17.001Z,62.28
2023-04-10T08:44:15.009Z,61.63
2023-04-10T08:47:14.204Z,61.90
2023-04-10T08:50:16.726Z,55.08
2023-04-10T08:53:16.524Z,64.22
2023-04-10T08:56:16.942Z,56.92
2023-04-10T08:59:15.013Z,61.72
2023-04-10T09:02:13.311Z,52.40
2023-04-10T09:05:13.766Z,52.40
2023-04-10T09:08:12.792Z,52.25
2023-04-10T09:11:11.360Z,50.10
2023-04-10T09:14:22.738Z,52.08
2023-04-10T09:17:22.261Z,49.00
2023-04-10T09:20:25.172Z,46.22
2023-04-10T09:26:26.636Z,42.42
2023-04-10T09:29:25.026Z,44.20
2023-04-10T09:32:52.261Z,46.63
2023-04-10T09:35:51.146Z,35.88
2023-04-10T09:38:52.803Z,39.60
2023-04-10T09:41:52.932Z,45.38
2023-04-10T09:44:56.931Z,36.85
2023-04-10T09:48:04.781Z,40.08
2023-04-10T09:51:02.967Z,44.00
2023-04-10T09:54:01.973Z,35.08
2023-04-10T09:57:00.158Z,34.35
2023-04-10T09:59:59.731Z,37.00
2023-04-10T10:03:00.450Z,34.20
2023-04-10T10:05:58.534Z,34.58
2023-04-10T10:08:57.010Z,37.80
2023-04-10T10:11:56.322Z,37.30
2023-04-10T10:15:22.556Z,39.72
2023-04-10T10:18:52.508Z,40.45
2023-04-10T10:21:52.756Z,40.67
2023-04-10T10:24:57.167Z,38.22
2023-04-10T10:27:56.253Z,37.97
2023-04-10T10:30:55.338Z,37.10
2023-04-10T10:33:54.828Z,33.42
2023-04-10T10:36:52.560Z,44.20
2023-04-10T10:40:05.246Z,34.50
2023-04-10T10:43:24.558Z,33.85
2023-04-10T10:46:48.521Z,34.70
2023-04-10T10:49:59.458Z,35.88
2023-04-10T10:52:58.309Z,32.95
2023-04-10T10:55:56.393Z,37.55
2023-04-10T10:58:56.557Z,34.95
2023-04-10T11:02:18.716Z,40.78
2023-04-10T11:05:51.778Z,39.53
2023-04-10T11:08:53.947Z,42.13
2023-04-10T11:12:02.292Z,50.22
2023-04-10T11:15:06.847Z,38.22
2023-04-10T11:18:04.721Z,37.78
2023-04-10T11:21:13.449Z,40.85
2023-04-10T11:24:11.677Z,31.92
2023-04-10T11:27:09.446Z,31.52
2023-04-10T11:30:28.602Z,31.88
2023-04-10T11:33:26.407Z,37.13
2023-04-10T11:36:25.065Z,45.75
2023-04-10T11:39:23.096Z,42.08
2023-04-10T11:42:22.330Z,48.15
2023-04-10T11:45:29.702Z,57.72
2023-04-10T11:48:29.484Z,44.25
2023-04-10T11:51:30.621Z,46.33
2023-04-10T11:54:29.930Z,46.97
2023-04-10T11:57:35.867Z,47.85
2023-04-10T12:00:33.957Z,46.55
2023-04-10T12:03:40.058Z,39.60
2023-04-10T12:06:38.138Z,39.65
2023-04-10T12:09:36.191Z,37.42
2023-04-10T12:12:38.306Z,32.88
2023-04-10T12:15:36.288Z,37.23
2023-04-10T12:18:34.579Z,33.80
2023-04-10T12:21:32.653Z,35.08
2023-04-10T12:24:46.662Z,29.33
2023-04-10T12:27:51.046Z,25.98
2023-04-10T12:30:55.711Z,25.83
2023-04-10T12:33:58.054Z,29.85
2023-04-10T12:36:56.180Z,28.20
2023-04-10T12:39:54.368Z,30.85
2023-04-10T12:42:52.960Z,29.63
2023-04-10T12:45:50.782Z,32.05
2023-04-10T12:48:48.822Z,31.85
2023-04-10T12:51:53.885Z,29.48
2023-04-10T12:54:51.922Z,29.90
2023-04-10T12:57:52.360Z,25.63
2023-04-10T13:00:50.380Z,26.63
2023-04-10T13:03:49.587Z,27.42
2023-04-10T13:06:48.971Z,25.52
2023-04-10T13:09:47.282Z,32.03
2023-04-10T13:12:45.252Z,33.25
2023-04-10T13:15:43.528Z,25.58
2023-04-10T13:18:41.228Z,28.20
2023-04-10T13:21:39.066Z,27.52
2023-04-10T13:24:37.598Z,33.60
2023-04-10T13:27:35.517Z,30.20
2023-04-10T13:30:33.666Z,30.63
2023-04-10T13:33:31.885Z,32.50
2023-04-10T13:36:29.797Z,27.98
2023-04-10T13:39:31.729Z,28.60
2023-04-10T13:42:29.633Z,29.08
2023-04-10T13:45:27.719Z,34.53
2023-04-10T13:48:33.662Z,38.90
2023-04-10T13:51:37.604Z,41.05
2023-04-10T13:54:35.511Z,33.97
2023-04-10T13:57:33.394Z,28.65
2023-04-10T14:00:31.297Z,25.05
2023-04-10T14:03:29.553Z,34.85
2023-04-10T14:06:27.881Z,29.75
2023-04-10T14:09:25.959Z,30.65
2023-04-10T14:12:24.602Z,28.95
2023-04-10T14:15:23.328Z,28.27
2023-04-10T14:18:21.186Z,27.40
2023-04-10T14:21:20.671Z,27.33
2023-04-10T14:24:18.797Z,29.17
2023-04-10T14:27:17.596Z,29.02
2023-04-10T14:30:15.488Z,22.95
2023-04-10T14:33:13.999Z,22.90
2023-04-10T14:36:12.077Z,25.40
2023-04-10T14:39:10.041Z,25.65
2023-04-10T14:42:08.000Z,29.00
2023-04-10T14:45:06.862Z,23.35
2023-04-10T14:48:05.080Z,22.58
2023-04-10T14:51:03.195Z,22.40
2023-04-10T14:54:01.185Z,17.20
2023-04-10T14:56:59.138Z,19.13
2023-04-10T14:59:57.027Z,17.48
2023-04-10T15:02:55.006Z,17.88
2023-04-10T15:06:00.587Z,18.10
2023-04-10T15:08:58.478Z,16.73
2023-04-10T15:11:57.527Z,17.23
2023-04-10T15:14:55.308Z,16.27
2023-04-10T15:17:53.435Z,15.50
2023-04-10T15:20:51.300Z,11.52
2023-04-10T15:23:49.136Z,13.57
2023-04-10T15:26:47.646Z,11.80
2023-04-10T15:29:45.324Z,11.30
2023-04-10T15:32:43.216Z,11.82
2023-04-10T15:35:41.121Z,10.85
2023-04-10T15:38:40.121Z,9.52
2023-04-10T15:41:38.834Z,9.82
2023-04-10T15:44:36.909Z,7.03
2023-04-10T15:47:34.672Z,6.43
2023-04-10T15:50:32.748Z,7.65
2023-04-10T15:53:30.723Z,6.45
2023-04-10T15:56:28.669Z,5.70
2023-04-10T15:59:26.386Z,7.00
2023-04-10T16:02:24.505Z,6.47
2023-04-10T16:05:22.583Z,7.60
2023-04-10T16:08:20.649Z,7.85
2023-04-10T16:11:18.672Z,8.98
2023-04-10T16:14:16.773Z,8.27
2023-04-10T16:17:14.718Z,9.75
2023-04-10T16:20:13.254Z,11.70
2023-04-10T16:23:11.425Z,11.82
2023-04-10T16:26:09.351Z,11.52
2023-04-10T16:29:07.446Z,13.23
2023-04-10T16:32:05.332Z,11.07
2023-04-10T16:35:03.413Z,9.82
2023-04-10T16:38:01.287Z,10.35
2023-04-10T16:41:02.144Z,12.43
2023-04-10T16:44:00.273Z,15.75
2023-04-10T16:46:58.811Z,15.93
2023-04-10T16:49:57.149Z,16.90
2023-04-10T16:52:55.247Z,13.98
2023-04-10T16:56:01.924Z,14.95
2023-04-10T16:59:02.526Z,17.27
2023-04-10T17:02:00.970Z,16.17
2023-04-10T17:04:59.101Z,15.68
2023-04-10T17:07:56.773Z,16.48
2023-04-10T17:10:55.098Z,15.15
2023-04-10T17:13:52.919Z,18.42
2023-04-10T17:16:50.889Z,14.98
2023-04-10T17:19:49.032Z,17.40
2023-04-10T17:22:47.723Z,14.13
2023-04-10T17:25:45.627Z,12.10
2023-04-10T17:28:46.964Z,12.30
2023-04-10T17:31:44.907Z,11.52
2023-04-10T17:34:43.238Z,9.75
2023-04-10T17:37:41.328Z,9.80
2023-04-10T17:40:41.336Z,7.45
2023-04-10T17:43:39.460Z,10.52
2023-04-10T17:46:37.401Z,6.25
2023-04-10T17:49:35.668Z,7.43
2023-04-10T17:52:33.594Z,4.63
2023-04-10T17:55:31.630Z,6.63
2023-04-10T17:58:29.535Z,3.63
2023-04-10T18:01:30.339Z,4.18
2023-04-10T18:04:28.285Z,3.35
2023-04-10T18:07:26.052Z,2.70
2023-04-10T18:10:24.146Z,2.33
2023-04-10T18:13:21.901Z,3.03
2023-04-10T18:16:20.055Z,2.25
2023-04-10T18:19:18.284Z,2.15
2023-04-10T18:22:16.149Z,3.38
2023-04-10T18:25:14.501Z,2.60
2023-04-10T18:28:15.908Z,2.20
2023-04-10T18:31:19.525Z,3.22
2023-04-10T18:34:17.527Z,1.20
2023-04-10T18:37:15.306Z,3.03
2023-04-10T18:40:16.339Z,4.15
2023-04-10T18:43:14.801Z,3.20
2023-04-10T18:46:13.113Z,1.92
2023-04-10T18:49:11.833Z,2.30
2023-04-10T18:52:09.889Z,2.15
2023-04-10T18:55:08.049Z,2.15
2023-04-10T18:58:05.887Z,3.80
2023-04-10T19:01:03.945Z,3.33
2023-04-10T19:04:02.107Z,2.30
2023-04-10T19:07:00.467Z,2.08
2023-04-10T19:09:58.295Z,2.53
2023-04-10T19:12:57.345Z,3.03
2023-04-10T19:15:55.727Z,1.75
2023-04-10T19:18:56.846Z,2.50
2023-04-10T19:21:55.014Z,2.47
2023-04-10T19:24:52.914Z,1.58
2023-04-10T19:27:51.026Z,2.92
2023-04-10T19:30:48.813Z,3.85
2023-04-10T19:33:46.688Z,3.03
2023-04-10T19:36:44.403Z,3.83
2023-04-10T19:39:42.297Z,2.40
2023-04-10T19:42:40.105Z,3.38
2023-04-10T19:45:39.130Z,3.15
2023-04-10T19:48:37.070Z,3.88
2023-04-10T19:51:34.995Z,3.60
2023-04-10T19:54:32.954Z,2.53
2023-04-10T19:57:30.967Z,4.13
2023-04-10T20:00:28.935Z,3.15
2023-04-10T20:03:28.420Z,3.20
2023-04-10T20:06:27.546Z,3.42
2023-04-10T20:09:25.470Z,2.83
2023-04-10T20:12:23.326Z,2.50
2023-04-10T20:15:22.733Z,2.85
2023-04-10T20:18:20.484Z,4.65
2023-04-10T20:21:19.285Z,5.50
2023-04-10T20:24:16.975Z,6.55
2023-04-10T20:27:16.180Z,6.18
2023-04-10T20:30:14.486Z,7.63
2023-04-10T20:33:12.565Z,5.93
2023-04-10T20:36:10.709Z,8.07
2023-04-10T20:39:08.495Z,5.78
2023-04-10T20:42:07.415Z,9.13
2023-04-10T20:45:05.910Z,7.25
2023-04-10T20:48:03.848Z,6.88
2023-04-10T20:51:02.458Z,6.07
2023-04-10T20:54:00.464Z,7.50
2023-04-10T20:57:00.697Z,7.45
2023-04-10T20:59:58.508Z,9.27
2023-04-10T21:02:56.491Z,6.97
2023-04-10T21:05:54.315Z,8.52
2023-04-10T21:08:53.143Z,7.57
2023-04-10T21:11:51.165Z,7.93
2023-04-10T21:14:49.007Z,7.60
2023-04-10T21:17:46.856Z,6.82
2023-04-10T21:20:45.492Z,6.47
2023-04-10T21:23:43.344Z,7.68
2023-04-10T21:26:41.064Z,6.70
2023-04-10T21:29:39.054Z,9.00
2023-04-10T21:32:37.112Z,6.45
2023-04-10T21:35:35.055Z,5.60
2023-04-10T21:38:32.880Z,6.50
2023-04-10T21:41:31.074Z,7.57
2023-04-10T21:44:28.802Z,6.40
2023-04-10T21:47:26.640Z,6.55
2023-04-10T21:50:26.037Z,8.55
2023-04-10T21:53:23.896Z,8.68
2023-04-10T21:56:21.713Z,6.53
2023-04-10T21:59:19.597Z,6.13
2023-04-10T22:02:17.418Z,6.03
2023-04-10T22:05:15.642Z,5.35
2023-04-10T22:08:14.509Z,6.38
2023-04-10T22:11:12.614Z,5.28
2023-04-10T22:14:16.924Z,4.85
2023-04-10T22:17:15.379Z,4.70
2023-04-10T22:20:13.299Z,6.40
2023-04-10T22:23:11.152Z,5.55
2023-04-10T22:26:08.929Z,4.90
2023-04-10T22:29:06.905Z,4.55
2023-04-10T22:32:04.655Z,6.35
2023-04-10T22:35:02.637Z,7.45
2023-04-10T22:38:00.367Z,5.05
2023-04-10T22:40:59.212Z,3.45
2023-04-10T22:43:57.155Z,3.35
2023-04-10T22:46:55.154Z,4.95
2023-04-10T22:49:53.429Z,4.22
2023-04-10T22:52:51.478Z,3.40
2023-04-10T22:55:49.232Z,4.20
2023-04-10T22:58:47.067Z,3.00
2023-04-10T23:01:45.321Z,3.10
2023-04-10T23:04:43.362Z,2.75
2023-04-10T23:07:41.262Z,3.85
2023-04-10T23:10:39.074Z,2.40
2023-04-10T23:13:37.055Z,2.85
2023-04-10T23:16:35.114Z,3.15
2023-04-10T23:19:32.980Z,2.60
2023-04-10T23:22:31.721Z,2.55
2023-04-10T23:25:29.597Z,3.90
2023-04-10T23:28:28.206Z,2.88
2023-04-10T23:31:26.481Z,2.97
2023-04-10T23:34:24.281Z,4.07
2023-04-10T23:37:22.200Z,2.25
2023-04-10T23:40:21.733Z,2.67
2023-04-10T23:43:19.736Z,5.25
2023-04-10T23:46:17.678Z,2.05
2023-04-10T23:49:15.509Z,2.20
2023-04-10T23:52:13.222Z,2.90
2023-04-10T23:55:11.391Z,2.85
2023-04-10T23:58:09.152Z,2.55
